Terminal Aerodrome Forecast
Issued by NWS Chicago, IL

Home | Current Version | Previous Version | Text Only | Print | Product List | Glossary Off
Versions: 1 2 3 4 5 6 7 8 9 10 11 12 13 14 15 16 17 18 19 20 21 22 23 24 25 26 27 28 29 30 31 32 33 34

000
FTUS43 KLOT 290900 AAA
TAFRFD
TAF AMD
KRFD 290902Z 2909/3006 07005KT P6SM SCT025 BKN100
     FM291000 03008KT 6SM BR BKN020
     FM291130 35012KT 5SM -DZ BR OVC010
     FM291300 32015G26KT 5SM -RASN OVC008
     FM291500 33020G31KT P6SM OVC015
     FM292300 32017G24KT P6SM BKN025
     FM300300 31014G21KT P6SM SCT025=

USA.gov is the U.S. government's official web portal to all federal, state and local government web resources and services.